createdAt,value
2023-07-16T00:00:35.337Z,76.79
2023-07-16T00:01:35.394Z,75.89
2023-07-16T00:02:35.317Z,75.49
2023-07-16T00:03:35.284Z,75.09
2023-07-16T00:04:35.311Z,76.39
2023-07-16T00:05:35.265Z,75.49
2023-07-16T00:06:35.256Z,74.48
2023-07-16T00:07:35.229Z,76.59
2023-07-16T00:08:35.229Z,80.71
2023-07-16T00:09:35.211Z,80.95
2023-07-16T00:10:35.213Z,80.65
2023-07-16T00:11:35.191Z,79.94
2023-07-16T00:12:35.193Z,79.35
2023-07-16T00:13:35.170Z,77.83
2023-07-16T00:14:35.171Z,77.23
2023-07-16T00:15:35.215Z,78.14
2023-07-16T00:16:35.202Z,78.34
2023-07-16T00:17:35.203Z,78.14
2023-07-16T00:18:35.131Z,77.13
2023-07-16T00:19:35.113Z,77.13
2023-07-16T00:20:35.099Z,77.13
2023-07-16T00:21:35.093Z,77.94
2023-07-16T00:22:35.162Z,77.53
2023-07-16T00:23:35.066Z,76.69
2023-07-16T00:24:35.060Z,78.60
2023-07-16T00:25:35.066Z,78.80
2023-07-16T00:26:35.036Z,77.20
2023-07-16T00:27:35.018Z,77.80
2023-07-16T00:28:35.047Z,76.49
2023-07-16T00:29:35.016Z,76.39
2023-07-16T00:30:35.000Z,75.68
2023-07-16T00:31:34.980Z,75.99
2023-07-16T00:32:35.015Z,76.09
2023-07-16T00:33:34.962Z,76.39
2023-07-16T00:34:34.975Z,75.68
2023-07-16T00:35:34.936Z,76.09
2023-07-16T00:36:34.935Z,76.09
2023-07-16T00:37:34.948Z,75.68
2023-07-16T00:38:34.912Z,75.79
2023-07-16T00:39:34.924Z,75.89
2023-07-16T00:40:34.922Z,75.89
2023-07-16T00:41:34.884Z,76.39
2023-07-16T00:42:34.865Z,76.79
2023-07-16T00:43:34.858Z,75.68
2023-07-16T00:44:34.841Z,75.59
2023-07-16T00:45:34.858Z,75.59
2023-07-16T00:46:34.858Z,75.68
2023-07-16T00:47:34.823Z,75.59
2023-07-16T00:48:34.801Z,75.29
2023-07-16T00:49:34.801Z,74.98
2023-07-16T00:50:34.798Z,74.98
2023-07-16T00:51:34.781Z,74.68
2023-07-16T00:52:34.766Z,74.88
2023-07-16T00:53:34.753Z,75.09
2023-07-16T00:54:34.743Z,75.09
2023-07-16T00:55:34.719Z,75.05
2023-07-16T00:56:34.759Z,75.15
2023-07-16T00:57:34.723Z,75.35
2023-07-16T00:58:34.700Z,75.15
2023-07-16T00:59:34.674Z,75.05
2023-07-16T01:00:34.668Z,75.05
2023-07-16T01:01:34.690Z,75.25
2023-07-16T01:02:34.752Z,75.05
2023-07-16T01:03:34.643Z,75.05
2023-07-16T01:04:34.719Z,75.25
2023-07-16T01:05:34.619Z,75.05
2023-07-16T01:06:34.713Z,75.35
2023-07-16T01:07:34.712Z,75.89
2023-07-16T01:08:34.604Z,75.89
2023-07-16T01:09:34.607Z,76.29
2023-07-16T01:10:34.583Z,76.39
2023-07-16T01:11:34.580Z,75.89
2023-07-16T01:12:34.550Z,76.19
2023-07-16T01:13:34.528Z,76.09
2023-07-16T01:14:34.530Z,76.39
2023-07-16T01:15:34.515Z,76.49
2023-07-16T01:16:34.603Z,76.79
2023-07-16T01:17:34.555Z,76.09
2023-07-16T01:18:34.472Z,76.29
2023-07-16T01:19:34.475Z,77.29
2023-07-16T01:20:34.461Z,77.09
2023-07-16T01:21:34.443Z,76.59
2023-07-16T01:22:34.491Z,76.39
2023-07-16T01:23:34.420Z,76.49
2023-07-16T01:24:34.411Z,76.89
2023-07-16T01:25:34.403Z,76.49
2023-07-16T01:26:34.388Z,76.09
2023-07-16T01:27:34.372Z,76.29
2023-07-16T01:28:34.379Z,76.69
2023-07-16T01:29:34.378Z,76.59
2023-07-16T01:30:34.351Z,76.49
2023-07-16T01:31:34.370Z,76.29
2023-07-16T01:32:34.410Z,76.29
2023-07-16T01:33:34.320Z,76.89
2023-07-16T01:34:34.385Z,76.69
2023-07-16T01:35:34.288Z,76.59
2023-07-16T01:36:34.295Z,76.69
2023-07-16T01:37:34.280Z,76.59
2023-07-16T01:38:34.279Z,77.00
2023-07-16T01:39:34.251Z,77.23
2023-07-16T01:40:34.245Z,78.14
2023-07-16T01:41:34.237Z,77.63
2023-07-16T01:42:34.208Z,78.14
2023-07-16T01:43:34.217Z,78.64
2023-07-16T01:44:34.232Z,79.35
2023-07-16T01:45:34.208Z,79.85
2023-07-16T01:46:34.198Z,79.85
2023-07-16T01:47:34.183Z,80.55
2023-07-16T01:48:34.150Z,80.49
2023-07-16T01:49:34.183Z,80.79
2023-07-16T01:50:34.128Z,81.29
2023-07-16T01:51:34.133Z,81.39
2023-07-16T01:52:34.107Z,81.70
2023-07-16T01:53:34.118Z,82.10
2023-07-16T01:54:34.081Z,82.60
2023-07-16T01:55:34.081Z,83.00
2023-07-16T01:56:34.069Z,83.00
2023-07-16T01:57:34.061Z,83.20
2023-07-16T01:58:34.081Z,83.65
2023-07-16T01:59:34.038Z,83.95
2023-07-16T02:00:34.021Z,83.45
2023-07-16T02:01:34.072Z,83.65
2023-07-16T02:02:34.133Z,83.75
2023-07-16T02:03:34.324Z,83.25
2023-07-16T02:04:33.976Z,83.14
2023-07-16T02:05:33.989Z,83.34
2023-07-16T02:06:33.954Z,83.34
2023-07-16T02:07:34.041Z,83.54
2023-07-16T02:08:33.942Z,83.25
2023-07-16T02:09:33.945Z,83.25
2023-07-16T02:10:33.921Z,83.75
2023-07-16T02:11:33.914Z,83.45
2023-07-16T02:12:33.923Z,83.45
2023-07-16T02:13:33.889Z,83.65
2023-07-16T02:14:33.891Z,83.75
2023-07-16T02:15:33.868Z,83.65
2023-07-16T02:16:33.938Z,83.84
2023-07-16T02:17:33.936Z,83.75
2023-07-16T02:18:33.853Z,83.95
2023-07-16T02:19:33.837Z,83.95
2023-07-16T02:20:33.806Z,84.15
2023-07-16T02:21:33.809Z,84.39
2023-07-16T02:22:33.852Z,85.00
2023-07-16T02:23:33.779Z,84.59
2023-07-16T02:24:33.776Z,84.59
2023-07-16T02:25:33.769Z,84.69
2023-07-16T02:26:33.760Z,84.59
2023-07-16T02:27:33.749Z,84.69
2023-07-16T02:28:33.730Z,84.69
2023-07-16T02:29:33.741Z,84.69
2023-07-16T02:30:33.695Z,84.80
2023-07-16T02:31:33.731Z,85.00
2023-07-16T02:32:33.752Z,84.74
2023-07-16T02:33:33.667Z,84.74
2023-07-16T02:34:33.681Z,84.63
2023-07-16T02:35:33.657Z,84.53
2023-07-16T02:36:33.646Z,84.43
2023-07-16T02:37:33.625Z,84.63
2023-07-16T02:38:33.609Z,84.63
2023-07-16T02:39:33.660Z,84.49
2023-07-16T02:40:33.592Z,84.39
2023-07-16T02:41:33.598Z,84.33
2023-07-16T02:42:33.574Z,84.33
2023-07-16T02:43:33.558Z,84.43
2023-07-16T02:44:33.551Z,84.83
2023-07-16T02:45:33.549Z,84.53
2023-07-16T02:46:33.585Z,84.74
2023-07-16T02:47:33.522Z,84.63
2023-07-16T02:48:33.509Z,84.63
2023-07-16T02:49:33.500Z,84.74
2023-07-16T02:50:33.475Z,84.63
2023-07-16T02:51:33.478Z,85.03
2023-07-16T02:52:33.470Z,84.94
2023-07-16T02:53:33.470Z,85.03
2023-07-16T02:54:33.456Z,85.14
2023-07-16T02:55:33.436Z,85.24
2023-07-16T02:56:33.425Z,85.24
2023-07-16T02:57:33.404Z,85.03
2023-07-16T02:58:33.445Z,84.83
2023-07-16T02:59:33.406Z,84.53
2023-07-16T03:00:33.394Z,84.33
2023-07-16T03:01:33.426Z,84.33
2023-07-16T03:02:33.478Z,84.03
2023-07-16T03:03:34.717Z,84.03
2023-07-16T03:04:33.496Z,84.33
2023-07-16T03:05:33.367Z,83.93
2023-07-16T03:06:33.324Z,84.23
2023-07-16T03:07:33.331Z,84.43
2023-07-16T03:08:33.295Z,84.63
2023-07-16T03:09:33.292Z,84.33
2023-07-16T03:10:33.279Z,84.23
2023-07-16T03:11:33.271Z,84.63
2023-07-16T03:12:33.314Z,84.53
2023-07-16T03:13:33.243Z,84.53
2023-07-16T03:14:33.184Z,84.53
2023-07-16T03:15:33.164Z,84.74
2023-07-16T03:16:33.240Z,84.83
2023-07-16T03:17:33.272Z,84.63
2023-07-16T03:18:33.197Z,84.63
2023-07-16T03:19:33.204Z,84.53
2023-07-16T03:20:33.181Z,84.63
2023-07-16T03:21:33.139Z,84.43
2023-07-16T03:22:33.126Z,84.43
2023-07-16T03:23:33.103Z,84.77
2023-07-16T03:24:33.113Z,84.88
2023-07-16T03:25:33.074Z,85.08
2023-07-16T03:26:33.057Z,85.17
2023-07-16T03:27:33.033Z,85.28
2023-07-16T03:28:33.037Z,85.17
2023-07-16T03:29:33.010Z,85.38
2023-07-16T03:30:33.020Z,85.38
2023-07-16T03:31:33.062Z,85.38
2023-07-16T03:32:50.241Z,85.42
2023-07-16T03:33:32.988Z,85.62
2023-07-16T03:34:32.966Z,85.52
2023-07-16T03:35:32.956Z,85.38
2023-07-16T03:36:32.955Z,85.72
2023-07-16T03:37:32.927Z,85.52
2023-07-16T03:38:32.902Z,85.62
2023-07-16T03:39:32.961Z,85.52
2023-07-16T03:40:32.887Z,85.42
2023-07-16T03:41:32.909Z,85.52
2023-07-16T03:42:32.880Z,85.82
2023-07-16T03:43:32.855Z,85.62
2023-07-16T03:44:32.845Z,85.42
2023-07-16T03:45:32.846Z,85.42
2023-07-16T03:46:32.833Z,85.31
2023-07-16T03:47:32.944Z,85.22
2023-07-16T03:48:32.820Z,85.42
2023-07-16T03:49:32.791Z,85.31
2023-07-16T03:50:32.802Z,85.31
2023-07-16T03:51:32.788Z,85.42
2023-07-16T03:52:32.803Z,85.62
2023-07-16T03:53:32.778Z,85.52
2023-07-16T03:54:32.731Z,85.62
2023-07-16T03:55:32.723Z,85.62
2023-07-16T03:56:32.708Z,85.31
2023-07-16T03:57:32.718Z,85.42
2023-07-16T03:58:32.696Z,85.11
2023-07-16T03:59:32.701Z,84.91
2023-07-16T04:00:32.680Z,84.81
2023-07-16T04:01:32.711Z,84.71
2023-07-16T04:02:32.670Z,84.31
2023-07-16T04:03:32.823Z,84.11
2023-07-16T04:04:32.639Z,83.80
2023-07-16T04:05:32.654Z,83.91
2023-07-16T04:06:32.609Z,83.60
2023-07-16T04:07:32.594Z,83.50
2023-07-16T04:08:32.588Z,83.50
2023-07-16T04:09:32.606Z,83.40
2023-07-16T04:10:32.590Z,83.50
2023-07-16T04:11:32.563Z,83.40
2023-07-16T04:12:32.552Z,83.70
2023-07-16T04:13:32.596Z,83.60
2023-07-16T04:14:32.514Z,83.60
2023-07-16T04:15:32.535Z,83.70
2023-07-16T04:16:32.586Z,83.20
2023-07-16T04:17:32.551Z,83.30
2023-07-16T04:18:32.546Z,83.40
2023-07-16T04:19:32.467Z,83.50
2023-07-16T04:20:32.513Z,83.50
2023-07-16T04:21:32.446Z,83.40
2023-07-16T04:22:32.478Z,83.16
2023-07-16T04:23:32.446Z,83.50
2023-07-16T04:24:32.408Z,83.50
2023-07-16T04:25:32.408Z,83.50
2023-07-16T04:26:32.394Z,83.30
2023-07-16T04:27:32.406Z,83.30
2023-07-16T04:28:32.400Z,83.30
2023-07-16T04:29:32.359Z,83.36
2023-07-16T04:30:32.368Z,83.46
2023-07-16T04:31:32.380Z,83.06
2023-07-16T04:32:32.334Z,82.86
2023-07-16T04:33:32.312Z,82.86
2023-07-16T04:34:32.320Z,82.76
2023-07-16T04:35:32.320Z,82.65
2023-07-16T04:36:32.308Z,82.76
2023-07-16T04:37:32.290Z,82.76
2023-07-16T04:38:32.273Z,82.76
2023-07-16T04:39:32.242Z,83.26
2023-07-16T04:40:32.237Z,83.36
2023-07-16T04:41:32.235Z,82.56
2023-07-16T04:42:32.222Z,82.35
2023-07-16T04:43:32.203Z,82.15
2023-07-16T04:44:32.211Z,82.05
2023-07-16T04:45:32.218Z,81.95
2023-07-16T04:46:32.260Z,81.65
2023-07-16T04:47:32.195Z,81.35
2023-07-16T04:48:32.169Z,81.55
2023-07-16T04:49:32.127Z,81.85
2023-07-16T04:50:32.125Z,81.85
2023-07-16T04:51:32.115Z,81.75
2023-07-16T04:52:32.100Z,82.15
2023-07-16T04:53:32.109Z,82.25
2023-07-16T04:54:32.098Z,81.75
2023-07-16T04:55:32.078Z,82.15
2023-07-16T04:56:32.047Z,81.75
2023-07-16T04:57:32.052Z,81.75
2023-07-16T04:58:32.040Z,82.05
2023-07-16T04:59:32.048Z,81.85
2023-07-16T05:00:32.004Z,81.85
2023-07-16T05:01:32.728Z,82.05
2023-07-16T05:02:32.042Z,81.85
2023-07-16T05:03:32.057Z,81.95
2023-07-16T05:04:32.203Z,81.65
2023-07-16T05:05:31.973Z,81.65
2023-07-16T05:06:31.942Z,82.25
2023-07-16T05:07:31.983Z,82.05
2023-07-16T05:08:31.915Z,82.25
2023-07-16T05:09:31.936Z,82.45
2023-07-16T05:10:31.901Z,82.96
2023-07-16T05:11:31.945Z,82.86
2023-07-16T05:12:31.870Z,83.16
2023-07-16T05:13:31.887Z,83.16
2023-07-16T05:14:31.855Z,83.36
2023-07-16T05:15:31.850Z,83.16
2023-07-16T05:16:31.939Z,82.96
2023-07-16T05:17:31.961Z,83.36
2023-07-16T05:18:31.847Z,83.76
2023-07-16T05:19:31.840Z,82.56
2023-07-16T05:20:31.788Z,82.25
2023-07-16T05:21:31.844Z,82.56
2023-07-16T05:22:31.803Z,82.76
2023-07-16T05:23:31.787Z,83.06
2023-07-16T05:24:31.747Z,82.25
2023-07-16T05:25:32.870Z,83.06
2023-07-16T05:26:31.726Z,82.86
2023-07-16T05:27:31.760Z,83.36
2023-07-16T05:28:31.731Z,82.35
2023-07-16T05:29:31.699Z,83.56
2023-07-16T05:30:31.698Z,83.76
2023-07-16T05:31:31.800Z,82.86
2023-07-16T05:32:31.679Z,83.06
2023-07-16T05:33:31.661Z,82.76
2023-07-16T05:34:31.655Z,83.16
2023-07-16T05:35:31.631Z,81.75
2023-07-16T05:36:31.666Z,80.90
2023-07-16T05:37:31.624Z,80.90
2023-07-16T05:38:31.606Z,81.10
2023-07-16T05:39:31.604Z,81.61
2023-07-16T05:40:31.596Z,81.71
2023-07-16T05:41:31.569Z,80.80
2023-07-16T05:42:31.572Z,81.61
2023-07-16T05:43:31.552Z,81.30
2023-07-16T05:44:31.527Z,80.80
2023-07-16T05:45:31.530Z,80.40
2023-07-16T05:46:31.596Z,80.30
2023-07-16T05:47:31.528Z,80.16
2023-07-16T05:48:31.543Z,79.66
2023-07-16T05:49:31.481Z,79.46
2023-07-16T05:50:31.465Z,79.46
2023-07-16T05:51:31.506Z,79.46
2023-07-16T05:52:31.448Z,79.05
2023-07-16T05:53:31.456Z,79.25
2023-07-16T05:54:31.442Z,79.76
2023-07-16T05:55:31.424Z,79.25
2023-07-16T05:56:31.432Z,78.11
2023-07-16T05:57:31.395Z,77.70
2023-07-16T05:58:31.393Z,77.31
2023-07-16T05:59:31.400Z,77.11
2023-07-16T06:00:31.436Z,76.70
2023-07-16T06:01:31.381Z,76.30
2023-07-16T06:02:31.385Z,76.40
2023-07-16T06:03:31.352Z,76.20
2023-07-16T06:04:31.346Z,77.00
2023-07-16T06:05:31.316Z,75.99
2023-07-16T06:06:31.287Z,75.90
2023-07-16T06:07:31.288Z,75.99
2023-07-16T06:08:31.261Z,74.89
2023-07-16T06:09:31.257Z,74.18
2023-07-16T06:10:31.257Z,74.85
2023-07-16T06:11:31.243Z,74.89
2023-07-16T06:12:31.255Z,74.18
2023-07-16T06:13:31.238Z,74.55
2023-07-16T06:14:31.234Z,74.25
2023-07-16T06:15:31.198Z,72.57
2023-07-16T06:16:31.238Z,72.27
2023-07-16T06:17:31.217Z,71.97
2023-07-16T06:18:31.160Z,71.47
2023-07-16T06:19:31.167Z,70.96
2023-07-16T06:20:31.140Z,70.16
2023-07-16T06:21:31.127Z,69.65
2023-07-16T06:22:31.142Z,68.75
2023-07-16T06:23:31.121Z,68.85
2023-07-16T06:24:31.094Z,69.35
2023-07-16T06:25:31.083Z,68.71
2023-07-16T06:26:31.071Z,70.03
2023-07-16T06:27:31.093Z,70.32
2023-07-16T06:28:31.073Z,68.82
2023-07-16T06:29:31.054Z,67.91
2023-07-16T06:30:31.027Z,67.81
2023-07-16T06:31:31.055Z,67.91
2023-07-16T06:32:31.074Z,67.51
2023-07-16T06:33:30.992Z,66.50
2023-07-16T06:34:31.005Z,67.71
2023-07-16T06:35:31.002Z,67.07
2023-07-16T06:36:30.989Z,66.47
2023-07-16T06:37:30.984Z,66.27
2023-07-16T06:38:30.944Z,66.07
2023-07-16T06:39:30.940Z,64.76
2023-07-16T06:40:30.923Z,65.06
2023-07-16T06:41:30.912Z,66.27
2023-07-16T06:42:30.899Z,65.67
2023-07-16T06:43:30.907Z,64.26
2023-07-16T06:44:30.877Z,63.85
2023-07-16T06:45:33.665Z,64.16
2023-07-16T06:46:30.913Z,64.56
2023-07-16T06:47:30.883Z,64.56
2023-07-16T06:48:30.856Z,63.45
2023-07-16T06:49:30.829Z,63.65
2023-07-16T06:50:30.818Z,64.26
2023-07-16T06:51:30.824Z,63.96
2023-07-16T06:52:30.827Z,64.29
2023-07-16T06:53:30.800Z,64.59
2023-07-16T06:54:30.852Z,64.49
2023-07-16T06:55:30.759Z,64.39
2023-07-16T06:56:30.759Z,63.79
2023-07-16T06:57:30.743Z,63.79
2023-07-16T06:58:30.751Z,64.89
2023-07-16T06:59:30.726Z,63.79
2023-07-16T07:00:30.746Z,63.68
2023-07-16T07:01:30.873Z,62.98
2023-07-16T07:02:30.706Z,63.99
2023-07-16T07:03:30.826Z,64.89
2023-07-16T07:04:30.737Z,64.29
2023-07-16T07:05:30.661Z,63.68
2023-07-16T07:06:30.647Z,63.99
2023-07-16T07:07:30.714Z,64.39
2023-07-16T07:08:30.623Z,64.19
2023-07-16T07:09:30.630Z,64.39
2023-07-16T07:10:30.626Z,64.09
2023-07-16T07:11:30.588Z,63.28
2023-07-16T07:12:30.584Z,63.68
2023-07-16T07:13:30.633Z,64.29
2023-07-16T07:14:30.562Z,63.89
2023-07-16T07:15:30.543Z,63.96
2023-07-16T07:16:30.573Z,64.76
2023-07-16T07:17:30.571Z,63.85
2023-07-16T07:18:30.540Z,63.62
2023-07-16T07:19:30.522Z,63.93
2023-07-16T07:20:30.499Z,64.43
2023-07-16T07:21:30.491Z,64.10
2023-07-16T07:22:30.573Z,62.79
2023-07-16T07:23:30.692Z,61.99
2023-07-16T07:24:30.453Z,62.69
2023-07-16T07:25:30.478Z,62.59
2023-07-16T07:26:30.435Z,63.02
2023-07-16T07:27:30.436Z,63.12
2023-07-16T07:28:30.417Z,63.22
2023-07-16T07:29:30.390Z,64.03
2023-07-16T07:30:30.415Z,64.33
2023-07-16T07:31:30.377Z,64.03
2023-07-16T07:32:30.397Z,63.62
2023-07-16T07:33:30.358Z,62.42
2023-07-16T07:34:30.356Z,62.12
2023-07-16T07:35:30.328Z,62.62
2023-07-16T07:36:30.316Z,62.72
2023-07-16T07:37:30.300Z,62.52
2023-07-16T07:38:30.338Z,63.22
2023-07-16T07:39:30.285Z,65.03
2023-07-16T07:40:30.320Z,63.82
2023-07-16T07:41:30.276Z,63.82
2023-07-16T07:42:31.194Z,63.59
2023-07-16T07:43:30.241Z,64.10
2023-07-16T07:44:30.249Z,62.39
2023-07-16T07:45:30.231Z,62.29
2023-07-16T07:46:30.259Z,62.26
2023-07-16T07:47:30.262Z,62.26
2023-07-16T07:48:30.190Z,61.86
2023-07-16T07:49:30.185Z,61.96
2023-07-16T07:50:30.175Z,63.06
2023-07-16T07:51:30.164Z,63.26
2023-07-16T07:52:30.161Z,63.17
2023-07-16T07:53:30.166Z,62.49
2023-07-16T07:54:30.131Z,62.19
2023-07-16T07:55:30.176Z,61.79
2023-07-16T07:56:30.110Z,62.79
2023-07-16T07:57:30.084Z,62.89
2023-07-16T07:58:30.084Z,63.09
2023-07-16T07:59:30.084Z,62.59
2023-07-16T08:00:30.080Z,62.59
2023-07-16T08:01:30.064Z,63.49
2023-07-16T08:02:30.117Z,62.69
2023-07-16T08:03:30.123Z,63.09
2023-07-16T08:04:30.077Z,63.29
2023-07-16T08:05:30.054Z,63.67
2023-07-16T08:06:29.998Z,64.67
2023-07-16T08:07:29.979Z,63.67
2023-07-16T08:08:30.010Z,63.76
2023-07-16T08:09:29.963Z,64.27
2023-07-16T08:10:29.968Z,63.56
2023-07-16T08:11:29.944Z,63.46
2023-07-16T08:12:29.945Z,64.27
2023-07-16T08:13:29.935Z,63.56
2023-07-16T08:14:29.929Z,64.57
2023-07-16T08:15:29.899Z,64.37
2023-07-16T08:16:29.906Z,63.76
2023-07-16T08:17:29.983Z,62.93
2023-07-16T08:18:29.900Z,64.94
2023-07-16T08:19:29.892Z,64.04
2023-07-16T08:20:29.870Z,62.63
2023-07-16T08:21:29.835Z,62.70
2023-07-16T08:22:29.875Z,63.20
2023-07-16T08:23:29.821Z,63.00
2023-07-16T08:24:29.825Z,62.70
2023-07-16T08:25:29.785Z,62.87
2023-07-16T08:26:29.783Z,63.28
2023-07-16T08:27:29.771Z,61.36
2023-07-16T08:28:29.773Z,61.87
2023-07-16T08:29:29.758Z,62.67
2023-07-16T08:30:29.749Z,62.17
2023-07-16T08:31:29.818Z,61.27
2023-07-16T08:32:29.772Z,59.66
2023-07-16T08:33:29.709Z,60.10
2023-07-16T08:34:29.708Z,59.99
2023-07-16T08:35:29.710Z,57.89
2023-07-16T08:36:29.694Z,58.59
2023-07-16T08:37:29.663Z,58.59
2023-07-16T08:38:29.654Z,58.39
2023-07-16T08:39:29.648Z,58.46
2023-07-16T08:40:29.646Z,58.06
2023-07-16T08:41:29.637Z,60.57
2023-07-16T08:42:29.613Z,59.86
2023-07-16T08:43:29.599Z,58.73
2023-07-16T08:44:29.590Z,55.93
2023-07-16T08:45:29.617Z,55.30
2023-07-16T08:46:29.646Z,56.90
2023-07-16T08:47:29.612Z,57.40
2023-07-16T08:48:29.558Z,56.80
2023-07-16T08:49:29.547Z,57.60
2023-07-16T08:50:32.405Z,58.37
2023-07-16T08:51:29.508Z,55.37
2023-07-16T08:52:29.559Z,56.20
2023-07-16T08:53:29.500Z,55.67
2023-07-16T08:54:29.482Z,57.07
2023-07-16T08:55:29.496Z,57.07
2023-07-16T08:56:29.463Z,56.27
2023-07-16T08:57:29.439Z,55.05
2023-07-16T08:58:29.446Z,55.27
2023-07-16T08:59:29.438Z,56.37
2023-07-16T09:00:29.424Z,57.37
2023-07-16T09:01:29.419Z,55.37
2023-07-16T09:02:29.456Z,54.87
2023-07-16T09:03:29.379Z,55.20
2023-07-16T09:04:29.386Z,55.00
2023-07-16T09:05:39.655Z,55.40
2023-07-16T09:06:29.448Z,56.33
2023-07-16T09:07:29.340Z,55.52
2023-07-16T09:08:29.349Z,55.93
2023-07-16T09:09:29.320Z,55.43
2023-07-16T09:10:29.357Z,55.63
2023-07-16T09:11:29.294Z,54.52
2023-07-16T09:12:29.275Z,55.22
2023-07-16T09:13:29.410Z,56.23
2023-07-16T09:14:29.260Z,56.23
2023-07-16T09:15:29.267Z,56.33
2023-07-16T09:16:29.244Z,55.35
2023-07-16T09:17:29.296Z,54.65
2023-07-16T09:18:29.380Z,55.55
2023-07-16T09:19:29.232Z,55.65
2023-07-16T09:20:29.195Z,55.75
2023-07-16T09:21:29.181Z,54.55
2023-07-16T09:22:29.258Z,55.65
2023-07-16T09:23:29.171Z,54.55
2023-07-16T09:24:29.162Z,54.45
2023-07-16T09:25:29.146Z,54.85
2023-07-16T09:26:29.175Z,54.75
2023-07-16T09:27:29.116Z,54.95
2023-07-16T09:28:29.110Z,55.93
2023-07-16T09:29:29.117Z,55.22
2023-07-16T09:30:29.085Z,54.62
2023-07-16T09:31:29.106Z,54.52
2023-07-16T09:32:29.134Z,55.90
2023-07-16T09:33:29.051Z,53.37
2023-07-16T09:34:29.055Z,54.07
2023-07-16T09:35:29.037Z,54.87
2023-07-16T09:36:29.024Z,54.35
2023-07-16T09:37:29.089Z,54.35
2023-07-16T09:38:28.999Z,54.55
2023-07-16T09:39:29.226Z,55.35
2023-07-16T09:40:29.316Z,55.62
2023-07-16T09:41:29.148Z,57.52
2023-07-16T09:42:29.142Z,55.22
2023-07-16T09:43:29.033Z,56.72
2023-07-16T09:44:29.082Z,55.92
2023-07-16T09:45:29.031Z,56.70
2023-07-16T09:46:29.195Z,55.79
2023-07-16T09:47:29.037Z,52.39
2023-07-16T09:48:28.956Z,52.80
2023-07-16T09:49:28.955Z,53.97
2023-07-16T09:50:29.006Z,54.86
2023-07-16T09:51:29.986Z,51.87
2023-07-16T09:52:29.116Z,51.77
2023-07-16T09:53:29.286Z,53.47
2023-07-16T09:54:29.045Z,53.17
2023-07-16T09:55:28.897Z,53.07
2023-07-16T09:56:28.902Z,52.97
2023-07-16T09:57:28.891Z,55.64
2023-07-16T09:58:29.002Z,54.14
2023-07-16T09:59:28.913Z,49.52
2023-07-16T10:00:28.945Z,51.52
2023-07-16T10:01:28.838Z,51.12
2023-07-16T10:02:28.957Z,50.62
2023-07-16T10:03:28.848Z,51.32
2023-07-16T10:04:28.842Z,51.82
2023-07-16T10:05:28.855Z,52.72
2023-07-16T10:06:28.753Z,52.32
2023-07-16T10:07:28.884Z,50.92
2023-07-16T10:08:29.686Z,51.10
2023-07-16T10:09:28.772Z,52.99
2023-07-16T10:10:28.806Z,50.49
2023-07-16T10:11:28.736Z,51.50
2023-07-16T10:12:28.845Z,53.79
2023-07-16T10:13:28.716Z,51.67
2023-07-16T10:14:28.696Z,52.87
2023-07-16T10:15:28.800Z,53.66
2023-07-16T10:16:28.848Z,49.38
2023-07-16T10:17:28.766Z,48.88
2023-07-16T10:18:28.640Z,49.10
2023-07-16T10:19:28.595Z,49.30
2023-07-16T10:20:28.750Z,49.10
2023-07-16T10:21:28.548Z,49.82
2023-07-16T10:22:28.594Z,50.12
2023-07-16T10:23:28.517Z,51.42
2023-07-16T10:24:28.495Z,51.84
2023-07-16T10:25:28.480Z,51.27
2023-07-16T10:26:28.467Z,51.67
2023-07-16T10:27:28.457Z,51.57
2023-07-16T10:28:28.468Z,50.87
2023-07-16T10:29:28.448Z,51.87
2023-07-16T10:30:28.439Z,50.37
2023-07-16T10:31:28.497Z,52.25
2023-07-16T10:32:28.460Z,53.24
2023-07-16T10:33:28.405Z,49.72
2023-07-16T10:34:28.424Z,48.72
2023-07-16T10:35:28.443Z,50.12
2023-07-16T10:36:28.363Z,48.82
2023-07-16T10:37:28.405Z,53.52
2023-07-16T10:38:28.354Z,49.52
2023-07-16T10:39:28.343Z,49.60
2023-07-16T10:40:28.317Z,49.50
2023-07-16T10:41:28.330Z,48.50
2023-07-16T10:42:28.345Z,50.10
2023-07-16T10:43:28.288Z,47.71
2023-07-16T10:44:28.298Z,49.80
2023-07-16T10:45:28.278Z,49.90
2023-07-16T10:46:28.332Z,50.30
2023-07-16T10:47:28.315Z,50.30
2023-07-16T10:48:28.238Z,50.00
2023-07-16T10:49:28.232Z,52.09
2023-07-16T10:50:28.215Z,50.47
2023-07-16T10:51:28.209Z,48.88
2023-07-16T10:52:28.223Z,48.00
2023-07-16T10:53:28.204Z,49.90
2023-07-16T10:54:28.194Z,49.90
2023-07-16T10:55:28.167Z,50.20
2023-07-16T10:56:28.145Z,49.70
2023-07-16T10:57:28.143Z,48.52
2023-07-16T10:58:28.130Z,51.52
2023-07-16T10:59:28.119Z,50.12
2023-07-16T11:00:28.121Z,50.02
2023-07-16T11:01:28.160Z,50.32
2023-07-16T11:02:28.179Z,50.42
2023-07-16T11:03:28.198Z,51.22
2023-07-16T11:04:28.094Z,52.19
2023-07-16T11:05:28.063Z,54.79
2023-07-16T11:06:28.043Z,52.57
2023-07-16T11:07:28.044Z,51.17
2023-07-16T11:08:28.020Z,51.47
2023-07-16T11:09:28.045Z,50.47
2023-07-16T11:10:28.075Z,49.18
2023-07-16T11:11:28.001Z,50.49
2023-07-16T11:12:28.004Z,51.59
2023-07-16T11:13:28.551Z,50.42
2023-07-16T11:14:27.956Z,51.12
2023-07-16T11:15:27.952Z,50.02
2023-07-16T11:16:27.990Z,51.20
2023-07-16T11:17:27.985Z,50.17
2023-07-16T11:18:28.142Z,50.95
2023-07-16T11:19:27.924Z,49.55
2023-07-16T11:20:27.901Z,47.75
2023-07-16T11:21:27.896Z,48.05
2023-07-16T11:22:28.043Z,47.30
2023-07-16T11:23:27.914Z,48.70
2023-07-16T11:24:27.849Z,50.60
2023-07-16T11:25:27.855Z,50.49
2023-07-16T11:26:27.835Z,50.12
2023-07-16T11:27:27.847Z,50.22
2023-07-16T11:28:27.818Z,50.52
2023-07-16T11:29:27.801Z,52.52
2023-07-16T11:30:27.841Z,53.02
2023-07-16T11:31:27.796Z,49.52
2023-07-16T11:32:28.018Z,50.12
2023-07-16T11:33:27.853Z,50.82
2023-07-16T11:34:27.797Z,51.92
2023-07-16T11:35:27.829Z,50.79
2023-07-16T11:36:27.734Z,50.99
2023-07-16T11:37:27.757Z,50.67
2023-07-16T11:38:27.713Z,50.17
2023-07-16T11:39:27.761Z,49.45
2023-07-16T11:40:27.705Z,48.25
2023-07-16T11:41:27.683Z,49.35
2023-07-16T11:42:27.660Z,47.66
2023-07-16T11:43:27.660Z,48.97
2023-07-16T11:44:27.649Z,48.68
2023-07-16T11:45:28.021Z,48.38
2023-07-16T11:46:27.694Z,49.20
2023-07-16T11:47:27.709Z,49.80
2023-07-16T11:48:27.653Z,50.20
2023-07-16T11:49:27.592Z,51.59
2023-07-16T11:50:27.610Z,51.40
2023-07-16T11:51:27.580Z,50.47
2023-07-16T11:52:27.577Z,51.45
2023-07-16T11:53:27.554Z,50.25
2023-07-16T11:54:27.562Z,50.35
2023-07-16T11:55:27.542Z,49.95
2023-07-16T11:56:27.522Z,49.45
2023-07-16T11:57:29.865Z,49.55
2023-07-16T11:58:27.515Z,48.95
2023-07-16T11:59:27.513Z,49.57
2023-07-16T12:00:27.675Z,48.88
2023-07-16T12:01:27.511Z,51.17
2023-07-16T12:02:27.528Z,50.07
2023-07-16T12:03:27.581Z,49.77
2023-07-16T12:04:27.464Z,51.25
2023-07-16T12:05:41.618Z,49.75
2023-07-16T12:06:27.440Z,50.32
2023-07-16T12:07:27.400Z,50.00
2023-07-16T12:08:27.440Z,50.50
2023-07-16T12:09:27.394Z,48.91
2023-07-16T12:10:27.388Z,47.39
2023-07-16T12:11:27.377Z,48.28
2023-07-16T12:12:27.359Z,44.53
2023-07-16T12:13:27.390Z,48.31
2023-07-16T12:14:27.335Z,47.91
2023-07-16T12:15:27.322Z,48.19
2023-07-16T12:16:27.463Z,48.98
2023-07-16T12:17:27.516Z,49.55
2023-07-16T12:18:27.295Z,46.37
2023-07-16T12:19:27.289Z,47.77
2023-07-16T12:20:27.282Z,46.57
2023-07-16T12:21:27.290Z,46.37
2023-07-16T12:22:27.298Z,49.08
2023-07-16T12:23:27.269Z,46.69
2023-07-16T12:24:27.222Z,50.57
2023-07-16T12:25:27.218Z,46.99
2023-07-16T12:26:27.240Z,46.57
2023-07-16T12:27:27.313Z,48.16
2023-07-16T12:28:27.200Z,48.46
2023-07-16T12:29:27.191Z,47.05
2023-07-16T12:30:27.160Z,46.75
2023-07-16T12:31:27.243Z,45.78
2023-07-16T12:32:27.237Z,46.65
2023-07-16T12:33:27.154Z,46.35
2023-07-16T12:34:27.143Z,46.35
2023-07-16T12:35:27.124Z,45.26
2023-07-16T12:36:27.123Z,47.74
2023-07-16T12:37:27.103Z,47.72
2023-07-16T12:38:27.083Z,44.96
2023-07-16T12:39:27.116Z,45.48
2023-07-16T12:40:27.113Z,45.42
2023-07-16T12:41:27.057Z,48.50
2023-07-16T12:42:27.036Z,49.08
2023-07-16T12:43:27.053Z,46.89
2023-07-16T12:44:27.014Z,46.08
2023-07-16T12:45:27.011Z,48.76
2023-07-16T12:46:27.034Z,46.67
2023-07-16T12:47:27.039Z,46.17
2023-07-16T12:48:26.976Z,47.27
2023-07-16T12:49:27.015Z,46.97
2023-07-16T12:50:26.967Z,44.58
2023-07-16T12:51:26.958Z,43.68
2023-07-16T12:52:26.942Z,45.00